Time,TemperatureF,DewpointF,PressureIn,WindDirection,WindDirectionDegrees,WindSpeedMPH,WindSpeedGustMPH,Humidity,HourlyPrecipIn,Conditions,Clouds,dailyrainin,SolarRadiationWatts/m^2,SoftwareType,DateUTC
2013-09-09 00:01:00,57.7,56.0,29.79,SE,132,5.0,7.0,93,0.00,,,0.00,0,weatherlink.com 1.10,2013-09-09 07:01:00,
2013-09-09 00:16:00,57.8,56.0,29.80,South,171,4.0,7.0,93,0.00,,,0.00,0,weatherlink.com 1.10,2013-09-09 07:16:00,
2013-09-09 00:31:00,57.5,56.0,29.79,SE,138,3.0,8.0,93,0.00,,,0.00,0,weatherlink.com 1.10,2013-09-09 07:31:00,
2013-09-09 00:46:00,57.4,55.0,29.79,SE,136,5.0,6.0,93,0.00,,,0.00,0,weatherlink.com 1.10,2013-09-09 07:46:00,
2013-09-09 01:01:00,57.2,56.0,29.80,SE,135,4.0,6.0,94,0.00,,,0.00,0,weatherlink.com 1.10,2013-09-09 08:01:00,
2013-09-09 01:16:00,57.2,56.0,29.79,SSE,150,4.0,5.0,94,0.00,,,0.00,0,weatherlink.com 1.10,2013-09-09 08:16:00,
2013-09-09 01:31:00,57.1,55.0,29.79,SSE,157,2.0,7.0,94,0.00,,,0.00,0,weatherlink.com 1.10,2013-09-09 08:31:00,
2013-09-09 01:46:00,57.1,55.0,29.79,SSE,161,1.0,5.0,94,0.00,,,0.00,0,weatherlink.com 1.10,2013-09-09 08:46:00,
2013-09-09 02:01:00,57.0,55.0,29.79,SE,128,4.0,7.0,94,0.00,,,0.00,0,weatherlink.com 1.10,2013-09-09 09:01:00,
2013-09-09 02:16:00,56.9,55.0,29.79,SE,146,5.0,9.0,94,0.00,,,0.00,0,weatherlink.com 1.10,2013-09-09 09:16:00,
2013-09-09 02:31:00,56.7,55.0,29.79,SE,127,3.0,7.0,94,0.00,,,0.00,0,weatherlink.com 1.10,2013-09-09 09:31:00,
2013-09-09 02:46:00,56.6,55.0,29.78,SE,128,2.0,7.0,94,0.00,,,0.00,0,weatherlink.com 1.10,2013-09-09 09:46:00,
2013-09-09 03:01:00,56.6,55.0,29.78,SE,138,3.0,8.0,95,0.00,,,0.00,0,weatherlink.com 1.10,2013-09-09 10:01:00,
2013-09-09 03:16:00,56.1,54.0,29.78,SSE,155,4.0,7.0,94,0.00,,,0.00,0,weatherlink.com 1.10,2013-09-09 10:16:00,
2013-09-09 03:31:00,55.9,54.0,29.78,South,173,3.0,6.0,94,0.00,,,0.00,0,weatherlink.com 1.10,2013-09-09 10:31:00,
2013-09-09 03:46:00,55.8,54.0,29.78,SSE,164,5.0,8.0,95,0.00,,,0.00,0,weatherlink.com 1.10,2013-09-09 10:46:00,
2013-09-09 04:01:00,55.6,54.0,29.78,SE,144,3.0,8.0,95,0.00,,,0.00,0,weatherlink.com 1.10,2013-09-09 11:01:00,
2013-09-09 04:16:00,55.6,54.0,29.78,SE,138,4.0,7.0,95,0.00,,,0.00,0,weatherlink.com 1.10,2013-09-09 11:16:00,
2013-09-09 04:31:00,55.4,54.0,29.78,SE,138,3.0,8.0,95,0.00,,,0.00,0,weatherlink.com 1.10,2013-09-09 11:31:00,
2013-09-09 04:46:00,55.3,54.0,29.78,SSE,164,2.0,7.0,95,0.00,,,0.00,0,weatherlink.com 1.10,2013-09-09 11:46:00,
2013-09-09 05:01:00,55.0,54.0,29.78,South,169,3.0,7.0,95,0.00,,,0.00,0,weatherlink.com 1.10,2013-09-09 12:01:00,
2013-09-09 05:16:00,55.2,54.0,29.78,SE,140,3.0,9.0,95,0.00,,,0.00,0,weatherlink.com 1.10,2013-09-09 12:16:00,
2013-09-09 05:32:00,54.9,54.0,29.79,SE,129,4.0,8.0,95,0.00,,,0.00,0,weatherlink.com 1.10,2013-09-09 12:32:00,
2013-09-09 05:47:00,55.0,54.0,29.79,SE,134,4.0,6.0,95,0.00,,,0.00,0,weatherlink.com 1.10,2013-09-09 12:47:00,
2013-09-09 06:02:00,55.1,54.0,29.79,SE,145,3.0,7.0,95,0.00,,,0.00,0,weatherlink.com 1.10,2013-09-09 13:02:00,
2013-09-09 06:17:00,55.2,54.0,29.79,SE,140,5.0,7.0,95,0.00,,,0.00,0,weatherlink.com 1.10,2013-09-09 13:17:00,
2013-09-09 06:32:00,55.3,54.0,29.79,SE,146,2.0,4.0,95,0.00,,,0.00,0,weatherlink.com 1.10,2013-09-09 13:32:00,
2013-09-09 06:47:00,55.3,54.0,29.80,SE,134,0.0,5.0,96,0.00,,,0.00,0,weatherlink.com 1.10,2013-09-09 13:47:00,
2013-09-09 07:02:00,55.5,54.0,29.81,South,175,1.0,4.0,96,0.00,,,0.00,5,weatherlink.com 1.10,2013-09-09 14:02:00,
2013-09-09 07:17:00,55.5,54.0,29.81,South,178,4.0,4.0,96,0.00,,,0.00,12,weatherlink.com 1.10,2013-09-09 14:17:00,
2013-09-09 07:32:00,55.6,55.0,29.81,SE,136,2.0,5.0,96,0.00,,,0.00,28,weatherlink.com 1.10,2013-09-09 14:32:00,
2013-09-09 07:47:00,55.6,55.0,29.82,SE,134,3.0,7.0,96,0.00,,,0.00,40,weatherlink.com 1.10,2013-09-09 14:47:00,
2013-09-09 08:02:00,55.9,55.0,29.81,SSE,159,4.0,8.0,96,0.00,,,0.00,65,weatherlink.com 1.10,2013-09-09 15:02:00,
2013-09-09 08:17:00,56.2,55.0,29.82,SSE,154,3.0,7.0,96,0.00,,,0.00,114,weatherlink.com 1.10,2013-09-09 15:17:00,
2013-09-09 08:32:00,56.6,55.0,29.82,SSE,162,2.0,6.0,95,0.00,,,0.00,151,weatherlink.com 1.10,2013-09-09 15:32:00,
2013-09-09 08:47:00,57.3,56.0,29.82,SE,141,7.0,9.0,94,0.00,,,0.00,265,weatherlink.com 1.10,2013-09-09 15:47:00,
2013-09-09 09:02:00,58.4,56.0,29.81,SSE,155,4.0,8.0,91,0.00,,,0.00,360,weatherlink.com 1.10,2013-09-09 16:02:00,
2013-09-09 09:17:00,59.5,57.0,29.81,SE,127,1.0,8.0,90,0.00,,,0.00,422,weatherlink.com 1.10,2013-09-09 16:17:00,
2013-09-09 09:32:00,61.2,57.0,29.81,SSE,155,1.0,5.0,87,0.00,,,0.00,475,weatherlink.com 1.10,2013-09-09 16:32:00,
2013-09-09 09:47:00,62.8,58.0,29.81,SE,138,3.0,4.0,83,0.00,,,0.00,524,weatherlink.com 1.10,2013-09-09 16:47:00,
2013-09-09 10:02:00,64.1,59.0,29.81,SSW,195,1.0,5.0,82,0.00,,,0.00,564,weatherlink.com 1.10,2013-09-09 17:02:00,
2013-09-09 10:17:00,65.1,58.0,29.81,South,173,2.0,4.0,79,0.00,,,0.00,610,weatherlink.com 1.10,2013-09-09 17:17:00,
2013-09-09 10:32:00,65.6,59.0,29.81,South,175,2.0,5.0,78,0.00,,,0.00,645,weatherlink.com 1.10,2013-09-09 17:32:00,
2013-09-09 10:47:00,66.1,59.0,29.80,SSW,213,1.0,7.0,79,0.00,,,0.00,679,weatherlink.com 1.10,2013-09-09 17:47:00,
2013-09-09 11:02:00,66.3,59.0,29.80,SSE,165,0.0,6.0,78,0.00,,,0.00,700,weatherlink.com 1.10,2013-09-09 18:02:00,
2013-09-09 11:18:00,68.1,60.0,29.80,SSE,165,1.0,5.0,75,0.00,,,0.00,735,weatherlink.com 1.10,2013-09-09 18:18:00,
2013-09-09 11:33:00,69.4,61.0,29.80,SSW,205,1.0,4.0,74,0.00,,,0.00,763,weatherlink.com 1.10,2013-09-09 18:33:00,
2013-09-09 11:48:00,68.8,60.0,29.80,SSW,193,1.0,6.0,73,0.00,,,0.00,786,weatherlink.com 1.10,2013-09-09 18:48:00,
2013-09-09 12:03:00,69.3,60.0,29.79,SSE,162,1.0,6.0,72,0.00,,,0.00,809,weatherlink.com 1.10,2013-09-09 19:03:00,
2013-09-09 12:18:00,68.3,59.0,29.79,SE,130,4.0,8.0,72,0.00,,,0.00,812,weatherlink.com 1.10,2013-09-09 19:18:00,
2013-09-09 12:33:00,68.3,59.0,29.79,SE,126,5.0,8.0,72,0.00,,,0.00,846,weatherlink.com 1.10,2013-09-09 19:33:00,
2013-09-09 12:48:00,67.3,58.0,29.78,South,175,5.0,9.0,73,0.00,,,0.00,851,weatherlink.com 1.10,2013-09-09 19:48:00,
2013-09-09 13:03:00,66.5,58.0,29.78,SSE,164,2.0,9.0,75,0.00,,,0.00,858,weatherlink.com 1.10,2013-09-09 20:03:00,
2013-09-09 13:18:00,67.5,59.0,29.78,SSW,194,3.0,9.0,73,0.00,,,0.00,861,weatherlink.com 1.10,2013-09-09 20:18:00,
2013-09-09 13:33:00,66.7,58.0,29.77,SE,144,7.0,11.0,73,0.00,,,0.00,856,weatherlink.com 1.10,2013-09-09 20:33:00,
2013-09-09 13:48:00,66.4,58.0,29.77,SE,134,5.0,9.0,75,0.00,,,0.00,847,weatherlink.com 1.10,2013-09-09 20:48:00,
2013-09-09 14:03:00,65.6,57.0,29.77,SSW,200,7.0,12.0,74,0.00,,,0.00,835,weatherlink.com 1.10,2013-09-09 21:03:00,
2013-09-09 14:18:00,65.2,57.0,29.76,SW,217,4.0,12.0,75,0.00,,,0.00,819,weatherlink.com 1.10,2013-09-09 21:18:00,
2013-09-09 14:33:00,67.7,59.0,29.76,SSW,213,5.0,9.0,73,0.00,,,0.00,798,weatherlink.com 1.10,2013-09-09 21:33:00,
2013-09-09 14:48:00,67.7,58.0,29.75,SE,146,7.0,10.0,71,0.00,,,0.00,773,weatherlink.com 1.10,2013-09-09 21:48:00,
2013-09-09 15:03:00,66.1,58.0,29.75,ESE,113,8.0,13.0,75,0.00,,,0.00,747,weatherlink.com 1.10,2013-09-09 22:03:00,
2013-09-09 15:18:00,64.4,58.0,29.75,SSE,153,10.0,12.0,79,0.00,,,0.00,717,weatherlink.com 1.10,2013-09-09 22:18:00,
2013-09-09 15:33:00,62.6,57.0,29.75,SSE,165,6.0,16.0,83,0.00,,,0.00,657,weatherlink.com 1.10,2013-09-09 22:33:00,
2013-09-09 15:48:00,62.6,57.0,29.74,SE,143,11.0,14.0,83,0.00,,,0.00,752,weatherlink.com 1.10,2013-09-09 22:48:00,
2013-09-09 16:03:00,62.2,58.0,29.74,SSE,165,6.0,14.0,86,0.00,,,0.00,584,weatherlink.com 1.10,2013-09-09 23:03:00,
2013-09-09 16:18:00,62.4,58.0,29.73,SE,146,11.0,16.0,85,0.00,,,0.00,615,weatherlink.com 1.10,2013-09-09 23:18:00,
2013-09-09 16:33:00,62.0,58.0,29.73,SE,126,8.0,13.0,86,0.00,,,0.00,559,weatherlink.com 1.10,2013-09-09 23:33:00,
2013-09-09 16:48:00,62.5,58.0,29.73,ESE,119,10.0,13.0,86,0.00,,,0.00,373,weatherlink.com 1.10,2013-09-09 23:48:00,
2013-09-09 17:03:00,62.3,58.0,29.73,South,170,7.0,14.0,86,0.00,,,0.00,274,weatherlink.com 1.10,2013-09-10 00:03:00,
2013-09-09 17:18:00,62.2,58.0,29.73,SSE,148,11.0,17.0,87,0.00,,,0.00,209,weatherlink.com 1.10,2013-09-10 00:18:00,
2013-09-09 17:33:00,62.2,58.0,29.73,SSE,163,7.0,16.0,87,0.00,,,0.00,176,weatherlink.com 1.10,2013-09-10 00:33:00,
2013-09-09 17:48:00,62.1,59.0,29.73,SE,138,5.0,16.0,88,0.00,,,0.00,237,weatherlink.com 1.10,2013-09-10 00:48:00,
2013-09-09 18:03:00,62.2,59.0,29.73,SSE,152,7.0,14.0,88,0.00,,,0.00,149,weatherlink.com 1.10,2013-09-10 01:03:00,
2013-09-09 18:18:00,61.8,59.0,29.72,SSE,150,6.0,13.0,89,0.00,,,0.00,151,weatherlink.com 1.10,2013-09-10 01:18:00,
2013-09-09 18:33:00,61.3,59.0,29.72,SE,139,7.0,12.0,91,0.00,,,0.00,58,weatherlink.com 1.10,2013-09-10 01:33:00,
2013-09-09 18:48:00,61.0,59.0,29.72,ESE,110,7.0,13.0,92,0.00,,,0.00,54,weatherlink.com 1.10,2013-09-10 01:48:00,
2013-09-09 19:03:00,60.6,58.0,29.71,SE,132,6.0,15.0,92,0.00,,,0.00,18,weatherlink.com 1.10,2013-09-10 02:03:00,
2013-09-09 19:18:00,60.4,58.0,29.71,SE,139,8.0,14.0,93,0.00,,,0.00,7,weatherlink.com 1.10,2013-09-10 02:18:00,
2013-09-09 19:33:00,60.0,58.0,29.72,SSE,167,8.0,13.0,93,0.00,,,0.00,0,weatherlink.com 1.10,2013-09-10 02:33:00,
2013-09-09 19:48:00,60.1,58.0,29.72,SE,130,6.0,12.0,94,0.00,,,0.00,0,weatherlink.com 1.10,2013-09-10 02:48:00,
2013-09-09 20:03:00,60.0,58.0,29.73,SE,132,8.0,13.0,94,0.00,,,0.00,0,weatherlink.com 1.10,2013-09-10 03:03:00,
2013-09-09 20:18:00,59.9,59.0,29.73,SE,124,6.0,15.0,95,0.00,,,0.00,0,weatherlink.com 1.10,2013-09-10 03:18:00,
2013-09-09 20:33:00,59.6,58.0,29.73,SE,142,6.0,14.0,95,0.00,,,0.00,0,weatherlink.com 1.10,2013-09-10 03:33:00,
2013-09-09 20:48:00,59.4,58.0,29.73,SSE,154,8.0,12.0,95,0.00,,,0.00,0,weatherlink.com 1.10,2013-09-10 03:48:00,
2013-09-09 21:03:00,59.3,58.0,29.74,SSE,147,6.0,13.0,95,0.00,,,0.00,0,weatherlink.com 1.10,2013-09-10 04:03:00,
2013-09-09 21:18:00,59.1,58.0,29.74,SSE,159,6.0,14.0,95,0.00,,,0.00,0,weatherlink.com 1.10,2013-09-10 04:18:00,
2013-09-09 21:33:00,59.2,58.0,29.74,SE,126,6.0,10.0,96,0.00,,,0.00,0,weatherlink.com 1.10,2013-09-10 04:33:00,
2013-09-09 21:48:00,58.7,58.0,29.74,SSE,157,3.0,9.0,96,0.00,,,0.00,0,weatherlink.com 1.10,2013-09-10 04:48:00,
2013-09-09 22:03:00,59.2,58.0,29.74,South,182,5.0,9.0,96,0.00,,,0.00,0,weatherlink.com 1.10,2013-09-10 05:03:00,
2013-09-09 22:18:00,59.2,58.0,29.74,SE,126,4.0,7.0,96,0.00,,,0.00,0,weatherlink.com 1.10,2013-09-10 05:18:00,
2013-09-09 22:33:00,59.2,58.0,29.74,SSE,148,6.0,11.0,95,0.00,,,0.00,0,weatherlink.com 1.10,2013-09-10 05:33:00,
2013-09-09 22:48:00,59.0,58.0,29.74,SSE,159,6.0,11.0,95,0.00,,,0.00,0,weatherlink.com 1.10,2013-09-10 05:48:00,
2013-09-09 23:03:00,59.0,58.0,29.74,SE,129,6.0,13.0,95,0.00,,,0.00,0,weatherlink.com 1.10,2013-09-10 06:03:00,
2013-09-09 23:18:00,59.3,58.0,29.74,South,186,4.0,9.0,95,0.00,,,0.00,0,weatherlink.com 1.10,2013-09-10 06:18:00,
2013-09-09 23:33:00,59.1,58.0,29.74,SSE,167,3.0,8.0,95,0.00,,,0.00,0,weatherlink.com 1.10,2013-09-10 06:33:00,
2013-09-09 23:48:00,59.1,58.0,29.74,SSE,155,1.0,9.0,95,0.00,,,0.00,0,weatherlink.com 1.10,2013-09-10 06:48:00,